Relevés horaires Matro (Suisse)


Relevés horaires à Matro - Mardi 25 Août 2026
Heure UTC1 Température [°C] Vent [km/h] Hum. [%] Pres.4 [hPa] Visi. [Km] Nébu. [octa] Préc.5 [mm] Cond.
2m. Res. Ros. Dir.2 Vit. Moy. Raf.3
23:00 10.9 9 8.5 SE 14.8 -- 18.5 85 850(0.4/3h) -- -- -- --
22:00 11.3 10 9.0 ESE 11.1 -- 13.0 86 850(0.9/3h) -- -- -- --
21:00 11.2 11 8.7 ESE 5.6 -- 14.8 85 850(1.4/3h) -- -- -- --
20:00 11.2 10.5 9.3 E 7.4 -- 14.8 88 850(1.4/3h) -- -- -- --
19:00 11.2 10.2 9.0 SE 9.3 -- 14.8 86 850 -- -- -- --
18:00 11.8 11.8 7.7 SSE 3.7 -- 18.5 76 850 -- -- -- --
17:00 12.6 12.6 5.4 NO 3.7 -- 13.0 61 850(1.0/3h) -- -- -- --
16:00 12.8 12.8 6.1 NO 5.6 -- 18.5 64 850(0.9/3h) -- -- -- --
15:00 13.0 12.3 4.6 NO 9.3 -- 18.5 57 850 -- -- -- --
14:00 12.4 12.3 5.6 NNO 5.6 -- 18.5 63 850(0.7/3h) -- -- -- --
13:00 14.4 14.4 8.4 O 5.6 -- 16.7 67 850(0.8/3h) -- -- -- --
12:00 12.7 12.7 8.8 SSO 5.6 -- 33.3 77 850(0.9/3h) -- -- -- --
11:00 11.5 10.9 5.7 NO 7.4 -- 18.5 67 850 -- -- -- --
10:00 10.9 9 5.5 NO 14.8 -- 27.8 69 850 -- -- -- --
09:00 10.1 7.6 5.8 NNO 18.5 -- 33.3 75 850 -- -- -- --
08:00 8.8 6.5 5.3 NO 14.8 -- 25.9 79 850(1.2/3h) -- -- -- --
07:00 8.2 5.1 4.7 NO 20.4 -- 33.3 79 850 -- -- -- --
06:00 7.8 4 7.5 NNO 25.9 -- 55.6 98 850(0.7/3h) -- -- -- --
05:00 8.1 6.9 8.1 S 7.4 -- 53.7 100 850(-0.2/3h) -- -- -- --
04:00 8.4 5.5 8.3 SSE 18.5 -- 55.6 99 850(-1.7/3h) -- -- -- --
03:00 8.5 4.6 8.5 SSE 29.6 -- 55.6 100 850(-3.0/3h) -- -- -- --
02:00 8.1 4.9 7.9 ESE 20.4 -- 48.2 99 850(-3.5/3h) -- -- -- --
01:00 7.7 5.4 7.4 N 13.0 -- 29.6 98 850(-2.9/3h) -- -- -- --
00:00 8.6 7.1 5.6 ENE 9.3 -- 55.6 81 850(-2.1/3h) -- -- -- --

1 Coordinated Universal Time. Actuellement il est 04:00 locale et 02:00 UTC.

2 Le vent souffle depuis la direction indiquée vers la direction oposée.

3 Les rafales max. sont disponible 40 min après l'heure du relevé.

4 Pour les stations d'altitude (plus de 600m) le géopotentiel du niveau le plus proche de la pression obligatoire est indiqué.

5 Les stations disposant d'un diffuseur peuvent indiquer "trace". Cela signifie que des précipitations ont touchés le sol mais que la quantité est inférieure à 0.1 mm.

Copyright

Les données affichées sur cette page sont la propriété exclusive de Météo Suisse.

Récapitulatif de la journée
Température [°C] Vent [km/h] Ensoleillement4 [h] Precipitations totale5 [mm] Pression [Hpa]
Min1 Max.2 Moy.3 Max. Min Max.
7.2 14.4 0 55.6 5 h 12 min 0 850.0 850.0

1 Température minimale relevée entre 18:00 UTC la veille et 18:00 UTC le jour donné.

2 Température maximale relevée entre 06:00 UTC le jour donné et 06:00 UTC le lendemain.

3 Vent moyen de la journée basé sur les relevés horaires.

4 Ensoleillement en heures relevé entre 06:00 UTC la veille et 06:00 UTC le jour donné.

5 Précipitations totales tombées entre 06:00 UTC la jour donné et 06:00 UTC le lendemain.

Graphiques horaires